Time;durP1;ratioP1;P1;durP2;ratioP2;P2;SDS_P1;SDS_P2;PMS_P1;PMS_P2;Temp;Humidity;BMP_temperature;BMP_pressure;BME280_temperature;BME280_humidity;BME280_pressure;Samples;Min_cycle;Max_cycle;Signal;HPM_P1;HPM_P2
2022/09/28 07:08:58;;;;;;;2.50;1.37;;;;;;;10.52;100.00;97776.94;6285394;22;20281;-83
2022/09/28 07:12:09;;;;;;;1.63;1.53;;;;;;;10.66;100.00;97775.38;6260329;22;20696;-84
2022/09/28 07:14:59;;;;;;;3.20;1.73;;;;;;;10.78;100.00;97769.78;6230094;22;20210;-84
2022/09/28 07:17:27;;;;;;;2.50;1.70;;;;;;;10.90;100.00;97779.16;6247742;22;20207;-84
2022/09/28 07:19:57;;;;;;;1.97;1.77;;;;;;;11.03;100.00;97764.44;6272816;22;20214;-84
2022/09/28 07:22:34;;;;;;;2.50;1.90;;;;;;;11.20;100.00;97759.59;6247265;22;20204;-85
2022/09/28 07:25:13;;;;;;;1.93;1.70;;;;;;;11.30;100.00;97750.75;6247254;22;20726;-86
2022/09/28 07:27:46;;;;;;;2.80;2.30;;;;;;;11.22;100.00;97741.38;6273048;22;20273;-83
2022/09/28 07:30:33;;;;;;;2.30;1.70;;;;;;;11.22;100.00;97732.53;6249978;22;20525;-81
2022/09/28 07:33:20;;;;;;;1.73;1.60;;;;;;;11.48;100.00;97742.94;6210539;22;20217;-81
2022/09/28 07:35:52;;;;;;;2.10;1.90;;;;;;;11.47;100.00;97751.28;6271879;22;20211;-81
2022/09/28 07:38:20;;;;;;;7.97;6.33;;;;;;;11.75;100.00;97736.50;6245392;22;20215;-82
2022/09/28 07:41:11;;;;;;;3.63;3.00;;;;;;;11.77;100.00;97728.97;6246125;22;20232;-81
2022/09/28 07:43:48;;;;;;;2.17;1.97;;;;;;;11.87;100.00;97721.69;6246350;22;20223;-82
2022/09/28 07:46:16;;;;;;;3.13;1.60;;;;;;;12.22;100.00;97712.72;6272641;22;20254;-82
2022/09/28 07:48:53;;;;;;;2.60;1.43;;;;;;;12.04;100.00;97712.53;6246321;22;20226;-81
2022/09/28 07:51:32;;;;;;;1.97;1.57;;;;;;;12.35;100.00;97714.78;6246181;22;20246;-80
2022/09/28 07:54:32;;;;;;;3.10;1.20;;;;;;;12.68;100.00;97715.94;6204611;22;20211;-81
2022/09/28 07:57:19;;;;;;;1.47;1.10;;;;;;;12.82;100.00;97701.84;6272138;22;20200;-83
2022/09/28 08:00:01;;;;;;;1.30;1.20;;;;;;;13.12;100.00;97707.00;6272925;22;20602;-83
2022/09/28 08:02:39;;;;;;;2.67;1.17;;;;;;;13.38;100.00;97705.72;6273054;22;20203;-82
2022/09/28 08:05:08;;;;;;;1.23;1.13;;;;;;;13.61;100.00;97696.06;6246237;22;20211;-82
2022/09/28 08:07:37;;;;;;;2.00;1.30;;;;;;;13.80;99.67;97685.34;6270937;22;20412;-82
2022/09/28 08:10:06;;;;;;;1.67;1.20;;;;;;;14.02;93.61;97683.72;6244957;22;20236;-82
2022/09/28 08:12:55;;;;;;;1.57;1.20;;;;;;;14.48;89.22;97692.00;6272905;22;20254;-83
2022/09/28 08:15:49;;;;;;;5.73;3.30;;;;;;;14.89;86.67;97692.19;6257098;22;20302;-82
2022/09/28 08:18:30;;;;;;;2.73;1.70;;;;;;;15.28;82.64;97688.31;6245366;22;20627;-83
2022/09/28 08:23:42;;;;;;;134.03;39.20;;;;;;;15.34;81.27;97684.44;6272532;22;20290;-82
2022/09/28 08:26:09;;;;;;;106.57;33.67;;;;;;;15.37;81.40;97679.25;6245297;22;20234;-82
2022/09/28 08:28:43;;;;;;;107.33;33.07;;;;;;;15.35;83.98;97681.44;6245611;22;20553;-83
2022/09/28 08:31:30;;;;;;;19.73;7.37;;;;;;;15.22;81.28;97676.00;6273373;22;20202;-86
2022/09/28 08:34:22;;;;;;;9.70;4.33;;;;;;;15.02;80.70;97671.78;6216623;22;20205;-86
2022/09/28 08:37:18;;;;;;;3.63;2.20;;;;;;;14.93;81.22;97662.78;6273162;22;20211;-89
2022/09/28 08:40:23;;;;;;;2.57;1.40;;;;;;;14.88;84.79;97673.63;6251957;22;20605;-85
2022/09/28 08:43:18;;;;;;;1.17;1.03;;;;;;;15.06;79.21;97658.50;6250375;22;20210;-87
2022/09/28 08:46:04;;;;;;;1.33;1.10;;;;;;;15.29;74.77;97649.47;6249971;22;20213;-89
2022/09/28 08:48:57;;;;;;;1.83;0.80;;;;;;;15.37;75.46;97644.19;6225211;22;20213;-88
2022/09/28 08:52:13;;;;;;;1.23;0.90;;;;;;;15.56;74.20;97640.63;6250061;22;20210;-89
2022/09/28 08:54:56;;;;;;;2.80;0.97;;;;;;;15.64;74.76;97631.81;6246127;22;20260;-89
2022/09/28 08:57:56;;;;;;;1.20;1.10;;;;;;;15.91;74.08;97625.63;6246067;22;20298;-88
2022/09/28 09:00:33;;;;;;;2.10;1.30;;;;;;;16.15;71.51;97621.56;6271386;22;20259;-87
2022/09/28 09:03:08;;;;;;;1.17;0.97;;;;;;;16.24;67.85;97616.22;6221181;22;20608;-86
2022/09/28 09:05:56;;;;;;;1.37;0.97;;;;;;;16.43;67.40;97616.06;6245503;22;20216;-88
2022/09/28 09:08:46;;;;;;;1.87;1.20;;;;;;;16.59;66.77;97607.34;6270469;22;20225;-86
2022/09/28 09:11:25;;;;;;;1.27;1.17;;;;;;;16.58;66.15;97600.31;6246788;22;20204;-87
2022/09/28 09:14:07;;;;;;;0.60;0.60;;;;;;;16.82;63.22;97597.31;6246961;22;20257;-87
2022/09/28 09:17:00;;;;;;;1.30;1.20;;;;;;;16.82;62.89;97585.69;6270970;22;20207;-86
2022/09/28 09:19:56;;;;;;;2.43;0.70;;;;;;;16.91;61.17;97576.53;6226800;22;20214;-86
2022/09/28 09:22:49;;;;;;;1.07;0.97;;;;;;;17.06;60.94;97567.22;6245431;22;20645;-87
2022/09/28 09:25:19;;;;;;;5.70;1.10;;;;;;;17.31;61.55;97558.38;6245954;22;20298;-88
2022/09/28 09:28:19;;;;;;;1.03;0.80;;;;;;;17.47;59.98;97559.56;6245533;22;20216;-86
2022/09/28 09:31:13;;;;;;;1.87;1.00;;;;;;;17.70;57.85;97554.09;6245117;22;20208;-88
2022/09/28 09:33:59;;;;;;;1.50;0.90;;;;;;;17.88;57.32;97559.22;6217626;22;20212;-89
2022/09/28 09:37:15;;;;;;;0.90;0.90;;;;;;;18.05;57.92;97561.16;6272206;22;20210;-88
2022/09/28 09:40:33;;;;;;;0.97;0.60;;;;;;;18.26;55.09;97562.13;6244653;22;20204;-86
2022/09/28 09:44:16;;;;;;;1.10;0.50;;;;;;;18.39;54.05;97572.00;6136360;23;20558;-87
2022/09/28 09:47:06;;;;;;;0.33;0.33;;;;;;;18.29;52.47;97566.88;6066060;23;20212;-87
2022/09/28 09:49:57;;;;;;;1.30;0.60;;;;;;;18.34;54.12;97583.00;6247825;22;20207;-88
2022/09/28 09:52:32;;;;;;;0.47;0.47;;;;;;;18.36;54.55;97564.50;6271049;22;20232;-86
2022/09/28 09:55:04;;;;;;;0.50;0.47;;;;;;;18.56;54.14;97562.28;6243879;22;20212;-87
2022/09/28 09:57:43;;;;;;;0.93;0.27;;;;;;;18.55;53.24;97561.50;6245338;22;20208;-87
2022/09/28 10:00:32;;;;;;;0.97;0.60;;;;;;;18.68;53.27;97549.66;6271414;22;20222;-86
2022/09/28 10:03:21;;;;;;;0.80;0.50;;;;;;;18.75;53.34;97541.03;6225505;22;20783;-86
2022/09/28 10:06:15;;;;;;;1.37;0.60;;;;;;;18.76;52.59;97537.19;6198591;22;20209;-85
2022/09/28 10:08:49;;;;;;;0.40;0.40;;;;;;;18.92;53.16;97535.56;6222327;22;20308;-86
2022/09/28 10:11:27;;;;;;;1.90;0.50;;;;;;;19.04;53.06;97526.72;6273723;22;20299;-85
2022/09/28 10:13:54;;;;;;;1.50;0.40;;;;;;;19.14;51.90;97531.81;6275514;22;20215;-84
2022/09/28 10:16:37;;;;;;;1.80;0.70;;;;;;;19.21;50.46;97522.06;6229757;22;20200;-86
2022/09/28 10:19:12;;;;;;;1.60;0.40;;;;;;;19.34;50.57;97515.59;6224147;22;20304;-85
2022/09/28 10:22:18;;;;;;;0.40;0.40;;;;;;;19.47;49.68;97521.94;6253834;22;20204;-83
2022/09/28 10:24:47;;;;;;;0.80;0.80;;;;;;;19.53;49.92;97519.84;6246567;22;20208;-84
2022/09/28 10:27:22;;;;;;;0.67;0.67;;;;;;;19.39;50.39;97513.81;6222486;22;20204;-86
2022/09/28 10:29:59;;;;;;;1.17;0.73;;;;;;;19.45;49.48;97516.06;6274567;22;20253;-85
2022/09/28 10:32:39;;;;;;;0.57;0.57;;;;;;;19.45;50.21;97520.69;6221279;22;20279;-86
2022/09/28 10:35:19;;;;;;;0.50;0.40;;;;;;;19.57;49.51;97518.84;6246078;22;20204;-86
2022/09/28 10:37:53;;;;;;;0.60;0.40;;;;;;;19.71;49.99;97521.31;6247115;22;20265;-85
2022/09/28 10:40:58;;;;;;;1.87;0.60;;;;;;;19.65;50.04;97525.34;6189669;22;20212;-86
2022/09/28 10:43:37;;;;;;;1.03;0.87;;;;;;;19.54;49.94;97522.25;6246608;22;20211;-87
2022/09/28 10:46:10;;;;;;;1.23;0.97;;;;;;;19.56;49.88;97525.41;6246828;22;20189;-86
2022/09/28 10:48:59;;;;;;;1.20;0.67;;;;;;;19.72;49.87;97521.00;6214437;22;20672;-86
2022/09/28 10:51:39;;;;;;;1.03;0.93;;;;;;;19.65;50.73;97519.91;6246918;22;20217;-86
2022/09/28 10:54:15;;;;;;;0.77;0.77;;;;;;;19.73;49.57;97517.16;6246281;22;20211;-87
2022/09/28 10:56:45;;;;;;;1.20;0.60;;;;;;;19.48;50.25;97518.09;6247384;22;20265;-85
2022/09/28 10:59:29;;;;;;;1.23;0.80;;;;;;;19.67;50.01;97515.75;6223204;22;20216;-86
2022/09/28 11:02:30;;;;;;;0.60;0.60;;;;;;;19.50;50.50;97504.22;6246203;22;20301;-87
2022/09/28 11:05:22;;;;;;;1.40;0.70;;;;;;;19.37;50.67;97500.56;6206245;22;20255;-86
2022/09/28 11:07:54;;;;;;;1.00;0.70;;;;;;;19.50;50.73;97510.44;6245626;22;20208;-87
2022/09/28 11:10:29;;;;;;;0.90;0.70;;;;;;;19.59;50.28;97511.19;6221991;22;20193;-85
2022/09/28 11:13:08;;;;;;;1.07;0.80;;;;;;;19.75;49.69;97504.03;6222551;22;20219;-85
2022/09/28 11:15:40;;;;;;;0.63;0.63;;;;;;;19.68;50.53;97501.06;6246930;22;20295;-86
2022/09/28 11:18:24;;;;;;;1.20;1.00;;;;;;;19.71;49.87;97486.00;6246482;22;20213;-86
2022/09/28 11:20:51;;;;;;;0.60;0.60;;;;;;;19.58;50.64;97482.44;6245765;22;20236;-87
2022/09/28 11:23:21;;;;;;;0.93;0.80;;;;;;;19.81;50.26;97479.38;6272662;22;20559;-86
2022/09/28 11:26:02;;;;;;;1.27;0.80;;;;;;;19.68;51.08;97482.03;6247300;22;20542;-87
2022/09/28 11:28:32;;;;;;;0.70;0.70;;;;;;;19.48;52.05;97463.78;6220349;22;20204;-86
2022/09/28 11:31:05;;;;;;;1.93;0.73;;;;;;;19.76;51.49;97466.81;6221925;22;20211;-86
2022/09/28 11:33:41;;;;;;;1.27;0.77;;;;;;;19.85;51.23;97472.16;6272119;22;20213;-86
2022/09/28 11:36:47;;;;;;;1.33;0.80;;;;;;;19.77;51.45;97468.41;6248339;22;20208;-87
2022/09/28 11:39:32;;;;;;;1.30;0.80;;;;;;;19.75;52.30;97467.91;6221349;22;20227;-87
2022/09/28 11:42:12;;;;;;;2.10;0.80;;;;;;;19.45;52.45;97469.09;6245858;22;20216;-84
2022/09/28 11:44:45;;;;;;;1.07;0.80;;;;;;;19.57;52.45;97469.16;6222166;22;20204;-87
2022/09/28 11:47:37;;;;;;;0.80;0.80;;;;;;;19.65;52.48;97474.53;6249235;22;20296;-86
2022/09/28 11:50:25;;;;;;;4.50;0.90;;;;;;;19.45;52.31;97469.91;6246096;22;20247;-87
2022/09/28 11:53:27;;;;;;;3.80;1.30;;;;;;;19.73;51.94;97476.41;6273446;22;20208;-86
2022/09/28 11:56:16;;;;;;;1.17;1.07;;;;;;;19.74;52.25;97480.72;6226198;22;20224;-86
2022/09/28 11:58:47;;;;;;;1.10;1.00;;;;;;;19.68;51.54;97490.19;6246043;22;20287;-86
2022/09/28 12:01:34;;;;;;;1.27;1.17;;;;;;;19.91;52.04;97490.66;6247086;22;20268;-87
2022/09/28 12:04:35;;;;;;;0.80;0.80;;;;;;;20.38;50.71;97491.25;6245562;22;20207;-87
2022/09/28 12:07:12;;;;;;;1.50;1.00;;;;;;;20.36;50.40;97488.06;6246792;22;20211;-86
2022/09/28 12:09:49;;;;;;;1.87;0.97;;;;;;;20.47;49.92;97494.69;6245358;22;20731;-86
2022/09/28 12:12:31;;;;;;;1.90;0.90;;;;;;;20.54;49.47;97485.97;6219278;22;20207;-87
2022/09/28 12:15:11;;;;;;;2.00;0.90;;;;;;;20.50;49.34;97488.56;6221358;22;20212;-86
2022/09/28 12:17:43;;;;;;;1.70;0.90;;;;;;;20.41;49.59;97485.13;6246011;22;20281;-86
2022/09/28 12:20:15;;;;;;;1.27;1.00;;;;;;;20.30;49.69;97477.69;6220459;22;20240;-86
2022/09/28 12:23:14;;;;;;;0.90;0.90;;;;;;;20.30;49.67;97480.41;6273518;22;20215;-87
2022/09/28 12:25:48;;;;;;;1.67;0.90;;;;;;;20.40;49.42;97475.38;6245970;22;20229;-87
2022/09/28 12:28:26;;;;;;;1.23;0.80;;;;;;;20.52;49.86;97480.06;6246223;22;20292;-86
2022/09/28 12:30:53;;;;;;;0.90;0.83;;;;;;;20.74;49.36;97479.66;6246348;22;20212;-86
2022/09/28 12:33:20;;;;;;;1.00;0.90;;;;;;;20.92;49.16;97474.81;6246473;22;20583;-86
2022/09/28 12:36:08;;;;;;;1.57;0.93;;;;;;;20.92;49.32;97488.41;6272667;22;20209;-87
2022/09/28 12:39:03;;;;;;;2.20;0.67;;;;;;;21.06;48.66;97481.53;6272879;22;20260;-86
2022/09/28 12:42:08;;;;;;;0.70;0.70;;;;;;;21.12;48.65;97490.28;6272999;22;20786;-86
2022/09/28 12:44:44;;;;;;;0.83;0.83;;;;;;;20.83;48.45;97479.56;6272685;22;20229;-86
2022/09/28 12:47:24;;;;;;;0.97;0.80;;;;;;;21.01;48.78;97476.28;6271358;22;20566;-85
2022/09/28 12:50:16;;;;;;;1.43;1.07;;;;;;;21.06;48.55;97492.41;6270984;22;20213;-85
2022/09/28 12:53:43;;;;;;;1.60;0.83;;;;;;;20.97;47.98;97489.00;6249802;22;20288;-86
2022/09/28 12:56:24;;;;;;;2.50;0.80;;;;;;;21.08;48.72;97494.81;6210194;22;20215;-85
2022/09/28 12:58:52;;;;;;;2.83;0.90;;;;;;;20.91;49.01;97493.06;6272850;22;20232;-86
2022/09/28 13:01:43;;;;;;;1.83;0.93;;;;;;;20.67;49.95;97490.28;6245775;22;20478;-87
2022/09/28 13:04:42;;;;;;;1.67;1.10;;;;;;;20.40;50.37;97497.13;6272271;22;20474;-86
2022/09/28 13:07:09;;;;;;;1.57;1.00;;;;;;;20.07;50.87;97499.00;6271726;22;20213;-87
2022/09/28 13:09:57;;;;;;;0.93;0.87;;;;;;;20.17;50.91;97502.13;6272497;22;20226;-87
2022/09/28 13:12:31;;;;;;;2.73;0.90;;;;;;;20.20;50.85;97501.44;6220901;22;20203;-85
2022/09/28 13:15:11;;;;;;;0.77;0.73;;;;;;;20.01;51.79;97517.44;6246013;22;20210;-85
2022/09/28 13:18:13;;;;;;;1.63;1.10;;;;;;;20.06;51.44;97506.34;6245665;22;20281;-86
2022/09/28 13:20:48;;;;;;;1.27;1.00;;;;;;;20.09;51.23;97505.72;6228912;22;20589;-87
2022/09/28 13:23:21;;;;;;;2.40;1.00;;;;;;;20.10;51.52;97504.59;6272170;22;20211;-87
2022/09/28 13:26:13;;;;;;;1.33;0.90;;;;;;;20.32;51.44;97506.19;6245742;22;20212;-85
2022/09/28 13:28:41;;;;;;;1.37;1.27;;;;;;;20.48;50.65;97500.91;6272130;22;20199;-84
2022/09/28 13:31:09;;;;;;;0.90;0.90;;;;;;;20.55;50.38;97506.59;6244719;22;20205;-85
2022/09/28 13:33:41;;;;;;;0.80;0.80;;;;;;;20.76;49.89;97510.06;6244252;22;20217;-84
2022/09/28 13:36:26;;;;;;;1.83;0.70;;;;;;;20.99;49.29;97516.69;6273049;22;20293;-86
2022/09/28 13:38:54;;;;;;;1.03;0.93;;;;;;;21.16;48.91;97510.25;6274038;22;20280;-86
2022/09/28 13:41:31;;;;;;;0.80;0.70;;;;;;;21.39;48.59;97508.69;6274892;22;20217;-84
2022/09/28 13:44:15;;;;;;;1.17;0.87;;;;;;;22.00;47.31;97510.56;6247969;22;20711;-84
2022/09/28 13:47:02;;;;;;;0.90;0.80;;;;;;;22.47;46.24;97522.44;6274490;22;20655;-86
2022/09/28 13:49:28;;;;;;;1.20;0.90;;;;;;;22.63;45.91;97522.50;6222239;22;20208;-84
2022/09/28 13:52:31;;;;;;;1.00;0.80;;;;;;;22.82;46.61;97525.34;6246953;22;20206;-85
2022/09/28 13:55:22;;;;;;;2.10;1.10;;;;;;;22.83;46.14;97527.75;6246614;22;20230;-85
2022/09/28 13:58:19;;;;;;;1.20;0.90;;;;;;;22.79;45.87;97517.88;6247334;22;20207;-84
2022/09/28 14:00:50;;;;;;;0.80;0.80;;;;;;;22.83;46.40;97521.50;6274183;22;20525;-85
2022/09/28 14:03:44;;;;;;;1.10;1.10;;;;;;;22.86;45.85;97522.75;6247584;22;20726;-85
2022/09/28 14:06:26;;;;;;;1.05;1.02;;;;;;;22.51;46.81;97531.53;6273819;22;20234;-87
2022/09/28 14:09:11;;;;;;;1.00;0.90;;;;;;;22.42;46.86;97530.88;6274274;22;20233;-84
2022/09/28 14:11:40;;;;;;;1.52;0.90;;;;;;;22.22;47.19;97529.13;6272273;22;20277;-84
2022/09/28 14:14:07;;;;;;;2.40;0.90;;;;;;;22.35;47.24;97533.38;6273139;22;20214;-84
2022/09/28 14:16:35;;;;;;;3.17;0.90;;;;;;;22.28;47.33;97527.75;6273333;22;20672;-85
2022/09/28 14:19:25;;;;;;;3.07;1.00;;;;;;;21.86;48.13;97522.59;6273776;22;20200;-84
2022/09/28 14:22:46;;;;;;;2.10;1.70;;;;;;;21.82;49.02;97518.97;6272867;22;20222;-85
2022/09/28 14:25:23;;;;;;;1.20;1.10;;;;;;;21.70;48.74;97512.72;6246999;22;20293;-84
2022/09/28 14:28:00;;;;;;;1.50;1.40;;;;;;;21.59;49.13;97508.91;6246581;22;20284;-85
2022/09/28 14:30:40;;;;;;;2.13;1.47;;;;;;;21.42;50.15;97521.59;6272274;22;20265;-84
2022/09/28 14:33:19;;;;;;;2.20;1.50;;;;;;;21.23;50.96;97532.25;6273994;22;20446;-84
2022/09/28 14:35:55;;;;;;;3.00;1.33;;;;;;;21.25;50.97;97537.38;6273545;22;20692;-85
2022/09/28 14:41:38;;;;;;;1.73;1.30;;;;;;;20.98;50.81;97531.44;6273691;22;20235;-85
2022/09/28 14:44:09;;;;;;;1.07;1.03;;;;;;;20.85;50.94;97535.25;6196022;22;20269;-85
2022/09/28 14:46:37;;;;;;;1.90;1.20;;;;;;;20.66;52.10;97545.88;6247234;22;20611;-86
2022/09/28 14:49:25;;;;;;;1.53;1.00;;;;;;;20.54;52.05;97548.53;6273800;22;20652;-84
2022/09/28 14:51:52;;;;;;;1.47;1.10;;;;;;;20.42;52.18;97553.91;6272980;22;20219;-85
2022/09/28 14:54:21;;;;;;;2.07;1.90;;;;;;;20.40;53.52;97550.72;6246253;22;20254;-87
2022/09/28 14:56:51;;;;;;;3.60;1.80;;;;;;;20.30;54.18;97543.78;6246380;22;20605;-85
2022/09/28 14:59:37;;;;;;;2.10;1.30;;;;;;;20.11;53.55;97551.59;6272162;22;20706;-85
2022/09/28 15:02:07;;;;;;;1.17;1.07;;;;;;;20.00;53.91;97555.81;6273027;22;20705;-85
2022/09/28 15:04:38;;;;;;;0.80;0.80;;;;;;;19.94;54.05;97563.38;6273723;22;20273;-84
2022/09/28 15:07:04;;;;;;;1.10;0.80;;;;;;;19.91;54.38;97563.25;6246544;22;20291;-85
2022/09/28 15:09:36;;;;;;;1.10;1.00;;;;;;;19.88;54.77;97572.84;6273165;22;20255;-85
2022/09/28 15:12:13;;;;;;;1.43;0.80;;;;;;;19.79;56.04;97578.31;6272526;22;20739;-83
2022/09/28 15:14:44;;;;;;;1.20;1.13;;;;;;;19.67;56.77;97575.53;6273555;22;20553;-85
2022/09/28 15:17:12;;;;;;;1.30;1.13;;;;;;;19.44;58.48;97578.84;6246536;22;20212;-84
2022/09/28 15:19:50;;;;;;;3.13;1.10;;;;;;;19.24;60.47;97580.31;6273382;22;20208;-86
2022/09/28 15:22:18;;;;;;;1.33;1.20;;;;;;;18.71;64.33;97586.97;6246276;22;20670;-87
2022/09/28 15:25:12;;;;;;;1.90;1.20;;;;;;;18.62;66.65;97585.41;6247054;22;20212;-86
2022/09/28 15:27:40;;;;;;;2.33;1.57;;;;;;;18.56;67.47;97592.13;6246440;22;20207;-85
2022/09/28 15:30:22;;;;;;;4.00;2.00;;;;;;;18.50;65.40;97591.44;6273078;22;20201;-84
2022/09/28 15:32:49;;;;;;;6.83;6.13;;;;;;;18.29;66.41;97591.28;6273584;22;20212;-85
2022/09/28 15:35:22;;;;;;;4.03;3.63;;;;;;;18.24;68.34;97601.50;6273505;22;20668;-85
2022/09/28 15:37:53;;;;;;;2.63;1.67;;;;;;;18.21;69.79;97602.13;6246701;22;20217;-84
2022/09/28 15:40:34;;;;;;;2.40;1.30;;;;;;;18.05;69.61;97596.38;6271721;22;20715;-85
2022/09/28 15:43:02;;;;;;;1.93;1.73;;;;;;;17.93;67.93;97586.16;6273258;22;20235;-85
2022/09/28 15:45:36;;;;;;;2.00;1.70;;;;;;;17.85;70.69;97599.69;6221409;22;20208;-86
2022/09/28 15:48:19;;;;;;;2.50;1.20;;;;;;;17.69;72.37;97596.59;6245995;22;20278;-85
2022/09/28 15:51:12;;;;;;;2.47;1.23;;;;;;;17.61;74.56;97597.38;6220850;22;20284;-86
2022/09/28 15:53:57;;;;;;;2.40;1.43;;;;;;;17.55;76.53;97602.13;6242055;22;20209;-85
2022/09/28 15:56:24;;;;;;;3.70;1.60;;;;;;;17.46;76.39;97605.91;6272305;22;20271;-85
2022/09/28 15:59:13;;;;;;;1.90;1.47;;;;;;;17.34;74.23;97606.50;6246290;22;20205;-85
2022/09/28 16:01:42;;;;;;;1.60;1.40;;;;;;;17.27;77.23;97611.53;6271429;22;20220;-85
2022/09/28 16:04:35;;;;;;;3.40;1.50;;;;;;;17.05;81.67;97620.53;6272764;22;20243;-84
2022/09/28 16:07:11;;;;;;;3.63;1.40;;;;;;;16.90;85.16;97629.00;6246627;22;20214;-85
2022/09/28 16:10:03;;;;;;;2.07;1.47;;;;;;;16.84;87.16;97629.47;6273247;22;20655;-84
2022/09/28 16:12:36;;;;;;;2.90;1.30;;;;;;;16.72;91.41;97640.81;6272651;22;20204;-84
2022/09/28 16:15:06;;;;;;;2.60;1.17;;;;;;;16.60;94.18;97644.09;6274023;22;20208;-87
2022/09/28 16:17:34;;;;;;;2.60;1.27;;;;;;;16.47;94.91;97638.69;6221703;22;20215;-85
2022/09/28 16:20:19;;;;;;;3.10;1.00;;;;;;;16.30;88.56;97642.03;6273192;22;20529;-85
2022/09/28 16:22:46;;;;;;;0.57;0.53;;;;;;;16.31;72.82;97640.94;6207103;22;20534;-84
2022/09/28 16:25:23;;;;;;;1.13;0.40;;;;;;;16.24;66.16;97635.94;6245679;22;20211;-83
2022/09/28 16:27:51;;;;;;;2.83;0.50;;;;;;;16.16;63.54;97636.66;6246957;22;20605;-86
2022/09/28 16:30:32;;;;;;;0.57;0.40;;;;;;;16.14;62.78;97649.66;6244734;22;20238;-87
2022/09/28 16:33:01;;;;;;;1.23;0.30;;;;;;;16.25;60.27;97647.53;6245955;22;20207;-83
2022/09/28 16:35:48;;;;;;;0.30;0.20;;;;;;;16.07;60.01;97646.59;6245447;22;20208;-83
2022/09/28 16:38:16;;;;;;;0.60;0.30;;;;;;;15.90;61.38;97641.03;6272349;22;20227;-81
2022/09/28 16:40:46;;;;;;;0.67;0.37;;;;;;;15.93;62.12;97650.41;6272957;22;20200;-84
2022/09/28 16:43:25;;;;;;;0.30;0.30;;;;;;;15.83;63.16;97652.22;6272316;22;20408;-82
2022/09/28 16:45:56;;;;;;;1.13;0.30;;;;;;;15.94;60.17;97642.00;6245974;22;20266;-85
2022/09/28 16:48:27;;;;;;;0.73;0.30;;;;;;;15.90;60.56;97641.03;6245667;22;20208;-87
2022/09/28 16:50:55;;;;;;;0.30;0.30;;;;;;;15.99;60.44;97647.31;6245635;22;20207;-86
2022/09/28 16:56:07;;;;;;;0.20;0.20;;;;;;;15.86;60.56;97643.50;6249683;22;20211;-87
2022/09/28 16:58:34;;;;;;;0.40;0.30;;;;;;;15.70;61.59;97639.53;6272787;22;20204;-88
2022/09/28 17:01:01;;;;;;;1.23;0.90;;;;;;;15.76;62.27;97653.72;6220856;22;20289;-89
2022/09/28 17:03:28;;;;;;;0.60;0.57;;;;;;;15.55;62.94;97661.41;6220997;22;20694;-84
2022/09/28 17:05:55;;;;;;;1.57;0.90;;;;;;;15.51;64.18;97662.31;6245028;22;20214;-88
2022/09/28 17:08:23;;;;;;;0.77;0.70;;;;;;;15.51;63.74;97665.00;6217419;22;20675;-85
2022/09/28 17:10:58;;;;;;;0.60;0.50;;;;;;;15.27;65.22;97668.63;6271902;22;20210;-85
2022/09/28 17:13:45;;;;;;;1.43;0.83;;;;;;;15.38;65.23;97666.56;6251729;22;20289;-89
2022/09/28 17:16:16;;;;;;;1.33;0.50;;;;;;;15.33;65.83;97675.56;6247234;22;20204;-81
2022/09/28 17:18:44;;;;;;;0.93;0.67;;;;;;;15.15;67.24;97673.72;6222326;22;20206;-83
2022/09/28 17:21:17;;;;;;;1.03;0.70;;;;;;;15.12;67.88;97687.78;6246847;22;20295;-85
2022/09/28 17:23:45;;;;;;;0.60;0.60;;;;;;;14.98;68.80;97674.25;6274609;22;20218;-82
2022/09/28 17:26:26;;;;;;;0.63;0.50;;;;;;;15.02;68.92;97671.78;6246878;22;20211;-87
2022/09/28 17:28:53;;;;;;;0.77;0.63;;;;;;;14.86;70.63;97665.84;6247782;22;20266;-83
2022/09/28 17:31:20;;;;;;;0.60;0.60;;;;;;;14.81;71.18;97674.00;6275000;22;20206;-91
2022/09/28 17:33:46;;;;;;;3.30;2.27;;;;;;;14.73;71.71;97674.69;6190715;22;20210;-91
2022/09/28 17:36:15;;;;;;;4.63;4.17;;;;;;;14.70;72.00;97674.44;6222796;22;20206;-90
2022/09/28 17:38:43;;;;;;;4.10;3.70;;;;;;;14.63;71.85;97666.75;6222501;22;20697;-87
2022/09/28 17:41:11;;;;;;;7.87;7.07;;;;;;;14.59;72.65;97664.94;6274002;22;20204;-89
2022/09/28 17:43:42;;;;;;;4.40;3.80;;;;;;;14.44;74.58;97663.25;6248923;22;20206;-87
2022/09/28 17:46:24;;;;;;;1.27;1.17;;;;;;;14.41;75.57;97671.94;6247056;22;20663;-85
2022/09/28 17:48:50;;;;;;;0.80;0.80;;;;;;;14.45;75.13;97681.03;6274271;22;20215;-86
2022/09/28 17:51:17;;;;;;;0.80;0.80;;;;;;;14.38;76.46;97681.38;6247172;22;20238;-89
2022/09/28 17:53:44;;;;;;;0.90;0.80;;;;;;;14.53;76.59;97688.44;6273592;22;20294;-86
2022/09/28 17:56:10;;;;;;;0.70;0.70;;;;;;;14.39;78.17;97682.19;6247099;22;20211;-86
2022/09/28 17:58:37;;;;;;;1.20;0.60;;;;;;;14.49;77.65;97687.44;6273727;22;20230;-87
2022/09/28 18:01:04;;;;;;;0.80;0.67;;;;;;;14.39;78.02;97688.38;6273966;22;20204;-85
2022/09/28 18:03:30;;;;;;;1.73;0.93;;;;;;;14.44;79.10;97692.88;6273599;22;20207;-85
2022/09/28 18:06:03;;;;;;;2.23;1.00;;;;;;;14.32;80.84;97687.13;6274203;22;20278;-87
2022/09/28 18:08:30;;;;;;;2.23;1.03;;;;;;;14.35;81.94;97691.91;6273523;22;20212;-85
2022/09/28 18:10:56;;;;;;;2.20;0.90;;;;;;;14.33;82.36;97689.50;6273654;22;20699;-84
2022/09/28 18:13:24;;;;;;;2.03;0.70;;;;;;;14.32;81.70;97695.19;6247175;22;20207;-85
2022/09/28 18:15:51;;;;;;;0.80;0.60;;;;;;;14.37;82.36;97698.63;6247224;22;20208;-84
2022/09/28 18:18:17;;;;;;;0.60;0.60;;;;;;;14.27;82.39;97690.69;6273666;22;20215;-87
2022/09/28 18:20:44;;;;;;;1.97;1.53;;;;;;;14.15;85.15;97701.06;6273905;22;20199;-86
2022/09/28 18:23:11;;;;;;;2.70;2.33;;;;;;;14.19;85.16;97701.28;6273667;22;20212;-85
2022/09/28 18:25:42;;;;;;;2.57;2.23;;;;;;;14.18;85.45;97705.06;6273987;22;20256;-84
2022/09/28 18:28:10;;;;;;;3.00;1.80;;;;;;;14.20;85.17;97708.25;6246833;22;20240;-85
2022/09/28 18:30:41;;;;;;;3.57;1.47;;;;;;;14.12;87.67;97698.94;6247445;22;20208;-84
2022/09/28 18:33:08;;;;;;;1.23;0.70;;;;;;;14.16;88.90;97713.44;6221282;22;20223;-85
2022/09/28 18:35:35;;;;;;;0.60;0.50;;;;;;;14.26;87.17;97717.91;6273810;22;20585;-84
2022/09/28 18:38:04;;;;;;;0.70;0.47;;;;;;;14.17;89.13;97719.63;6246926;22;20283;-84
2022/09/28 18:40:32;;;;;;;0.80;0.70;;;;;;;14.15;87.67;97719.09;6247102;22;20676;-84
2022/09/28 18:42:59;;;;;;;0.93;0.50;;;;;;;14.13;89.49;97727.50;6273338;22;20222;-84
2022/09/28 18:45:25;;;;;;;1.23;0.80;;;;;;;14.09;91.80;97726.47;6273440;22;20216;-83
2022/09/28 18:47:52;;;;;;;1.40;0.65;;;;;;;14.08;96.66;97724.84;6257340;22;20906;-84
2022/09/28 18:50:19;;;;;;;2.27;1.80;;;;;;;14.05;100.00;97728.09;6273038;22;20276;-86
2022/09/28 18:52:46;;;;;;;4.30;3.17;;;;;;;14.04;100.00;97724.59;6273577;22;20200;-86
2022/09/28 18:55:12;;;;;;;4.33;2.93;;;;;;;14.04;100.00;97727.28;6273373;22;20204;-86
2022/09/28 18:57:40;;;;;;;2.80;1.80;;;;;;;14.02;100.00;97734.06;6273394;22;20208;-86
2022/09/28 19:00:10;;;;;;;1.00;0.90;;;;;;;14.10;98.26;97725.34;6272965;22;20274;-88
2022/09/28 19:02:37;;;;;;;1.10;0.83;;;;;;;14.06;97.32;97719.75;6246972;22;20206;-87
2022/09/28 19:05:05;;;;;;;0.90;0.90;;;;;;;14.05;98.17;97726.22;6273935;22;20311;-86
2022/09/28 19:07:32;;;;;;;0.70;0.70;;;;;;;14.18;94.02;97732.00;6273604;22;20204;-86
2022/09/28 19:09:59;;;;;;;1.83;0.80;;;;;;;14.08;95.89;97736.44;6221053;22;20210;-86
2022/09/28 19:12:25;;;;;;;2.00;0.87;;;;;;;14.05;100.00;97738.88;6246877;22;20227;-86
2022/09/28 19:14:52;;;;;;;0.87;0.80;;;;;;;14.03;100.00;97747.25;6246697;22;20204;-87
2022/09/28 19:17:19;;;;;;;1.23;0.80;;;;;;;14.05;100.00;97749.66;6274174;22;20184;-85
2022/09/28 19:19:46;;;;;;;0.83;0.73;;;;;;;14.09;100.00;97745.31;6272133;22;20205;-87
2022/09/28 19:22:12;;;;;;;0.60;0.60;;;;;;;14.05;99.86;97741.56;6245489;22;20208;-86
2022/09/28 19:24:39;;;;;;;1.10;0.70;;;;;;;14.09;100.00;97748.00;6274027;22;20204;-87
2022/09/28 19:27:06;;;;;;;1.73;0.87;;;;;;;14.05;99.94;97745.06;6246739;22;20208;-87
2022/09/28 19:29:32;;;;;;;1.40;0.70;;;;;;;14.13;90.19;97745.53;6273304;22;20216;-87
2022/09/28 19:31:59;;;;;;;0.80;0.80;;;;;;;14.11;91.01;97741.22;6247702;22;20212;-87
2022/09/28 19:34:28;;;;;;;0.60;0.60;;;;;;;14.04;90.03;97740.75;6272562;22;20518;-85
2022/09/28 19:36:56;;;;;;;0.60;0.60;;;;;;;14.10;89.88;97739.63;6273601;22;20212;-87
2022/09/28 19:39:22;;;;;;;0.40;0.40;;;;;;;14.46;78.58;97733.81;6273558;22;20620;-86